Weather observations for the past three days for
Asheboro, Asheboro Municipal Airport
Metric (Imperial)
Date Time (edt) Wind (kph) Vis. (km) Weather Sky Cond. Temperature (ºC) Relative Humidity Wind Chill (°C) Heat Index (°C) Pressure Precipitation (cm)
Air Dwpt 6 hour altimeter (cm) sea level (mb) 1 hr 3 hr 6 hr
Max. Min.
04 09:35 W 6 16.09 Fair CLR 13 5.9 62% 76.38 0.0
04 09:15 SW 7 16.09 Fair CLR 12.8 6.2 64% 76.38 0.0
04 08:55 SW 9 16.09 Fair CLR 11.7 6.1 69% 76.38 0.0
04 08:35 SW 7 16.09 Fair CLR 10.8 6.4 74% 76.35 0.0
04 08:15 SW 6 16.09 Fair CLR 8.7 6.3 85% 76.35 0.0
04 07:55 Calm 16.09 Fair CLR 7.3 5.6 8.5 3.9 89% 76.38 0.0
04 07:35 Calm 16.09 Fair CLR 5.7 4.5 92% 76.38 0.0
04 07:15 Calm 16.09 Fair CLR 5.1 4 93% 76.38 0.0
04 06:55 Calm 16.09 Fair CLR 5 3.6 91% 76.38 0.0
04 06:35 Calm 16.09 Fair CLR 4.5 3.5 93% 76.35 0.0
04 06:15 Calm 16.09 Fair CLR 4 3 93% 76.38 0.0
04 05:55 Calm 16.09 Fair CLR 5.1 3.7 91% 76.35 0.0
04 05:35 Calm 16.09 Fair CLR 4 2.9 93% 76.35 0.0
04 05:15 Calm 16.09 Fair CLR 5 3.7 91% 76.35 0.0
04 04:55 Calm 16.09 Fair CLR 6 3.7 85% 76.35 0.0
04 04:35 Calm 16.09 Fair CLR 5.1 3.5 90% 76.33 0.0
04 04:15 Calm 16.09 Fair CLR 6.2 3.7 84% 76.33 0.0
04 03:55 Calm 16.09 Fair CLR 6 3.3 83% 76.33 0.0
04 03:35 Calm 16.09 Fair CLR 8.5 3.7 72% 76.33 0.0
04 03:15 Calm 16.09 Fair CLR 7.6 4 78% 76.33 0.0
04 02:55 Calm 16.09 Fair CLR 7.5 4.4 81% 76.33 0.0
04 02:35 Calm 16.09 Fair CLR 7.5 4.2 80% 76.33 0.0
04 02:15 Calm 16.09 Fair CLR 7.3 3.5 77% 76.35 0.0
04 01:55 Calm 16.09 Fair CLR 7.5 3.2 14.5 7.5 74% 76.35 0.0
04 01:35 Calm 16.09 Fair CLR 9.3 3.9 69% 76.35 0.0
04 01:15 Calm 16.09 Fair CLR 9.2 3.8 69% 76.35 0.0
04 00:55 Calm 16.09 Fair CLR 9.5 2.7 63% 76.35 0.0
04 00:35 Calm 16.09 Fair CLR 9.7 2.4 61% 76.35 0.0
04 00:15 Calm 16.09 Fair CLR 9.3 2.2 61% 76.35 0.0
03 23:55 Calm 16.09 Fair CLR 9.2 2.6 64% 76.38 0.0
03 23:35 Calm 16.09 Fair CLR 9.9 1.6 57% 76.38 0.0
03 23:15 Calm 16.09 Fair CLR 9.7 0.4 53% 76.38 0.0
03 22:55 Calm 16.09 Fair CLR 9.5 1.1 56% 76.35 0.0
03 22:35 Calm 16.09 Fair CLR 9.9 1.1 55% 76.35 0.0
03 22:15 SW 6 16.09 Fair CLR 10.3 1.3 54% 76.35 0.0
03 21:55 Calm 16.09 Fair CLR 10.7 1.5 53% 76.33 0.0
03 21:35 Calm 16.09 Fair CLR 10.6 1.7 54% 76.33 0.0
03 21:15 Calm 16.09 Fair CLR 10.3 2.8 60% 76.33 0.0
03 20:55 Calm 16.09 Fair CLR 10.7 3 59% 76.3 0.0
03 20:35 Calm 16.09 Fair CLR 11.5 2.5 54% 76.28 0.0
03 20:15 Calm 16.09 Fair CLR 13 1.8 47% 76.28 0.0
03 19:55 Calm 16.09 Fair CLR 14.7 1.5 18 14.7 41% 76.28 0.0
03 19:35 Calm 16.09 Fair CLR 17 -2.1 27% 76.25 0.0
03 19:15 SW 6 16.09 Fair CLR 17.5 -2.5 26% 76.28 0.0
03 18:55 SW 7 16.09 Fair CLR 17.5 -2.6 25% 76.28 0.0
03 18:35 NW 6 16.09 Fair CLR 17.5 -2.9 25% 76.28 0.0
03 18:15 NW 9 16.09 Fair CLR 17.7 -2.6 25% 76.3 0.0
03 17:55 NW 7 16.09 Fair CLR 17.6 -3.3 24% 76.3 0.0
03 17:35 Calm 16.09 Fair CLR 17.5 -3 25% 76.3 0.0
03 17:15 W 9 16.09 Fair CLR 17.7 -2.9 25% 76.3 0.0
03 16:35 SW 9 16.09 Fair CLR 17.3 -4.8 22% 76.33 0.0
03 16:15 NW 11 16.09 Fair CLR 17 -5.1 22% 76.35 0.0
03 15:55 W 15 16.09 Fair CLR 16.8 -4.8 23% 76.38 0.0
03 15:35 S 7 16.09 Fair CLR 17 -3.7 24% 76.38 0.0
03 15:15 Calm 16.09 Fair CLR 15.9 -4.3 25% 76.43 0.0
03 14:55 W 9 16.09 Fair CLR 16.5 -3.8 25% 76.43 0.0
03 14:35 NW 15 16.09 Fair CLR 16.7 -3.3 25% 76.43 0.0
03 14:15 W 9 16.09 Fair CLR 15.6 -2.8 28% 76.45 0.0
03 13:55 W 11 16.09 Fair CLR 15.2 -4.2 15.3 3.7 26% 76.48 0.0
03 13:35 NW 9 16.09 Fair CLR 14.8 -3.5 28% 76.48 0.0
03 13:15 NW 13 16.09 Fair CLR 15 -3.4 28% 76.5 0.0
03 12:55 NW 9 G 15 16.09 Fair CLR 14.1 -3.4 30% 76.53 0.0
03 12:35 NW 17 16.09 Fair CLR 14 -3.4 30% 76.56 0.0
03 12:15 NW 15 16.09 Fair CLR 13.9 -4.1 29% 76.56 0.0
03 11:55 NW 15 16.09 Fair CLR 13 -4 31% 76.58 0.0
03 11:35 NW 11 16.09 Fair CLR 12.9 -2.9 33% 76.58 0.0
03 11:15 N 7 16.09 Fair CLR 12.2 -2.9 35% 76.58 0.0
03 10:55 N 15 16.09 Fair CLR 11.7 -2.6 37% 76.58 0.0
03 10:35 NW 15 G 26 16.09 Fair CLR 11.5 -2.8 37% 76.58 0.0
03 10:15 N 17 16.09 Fair CLR 11.2 -2 40% 76.58 0.0
03 09:55 NW 19 G 28 16.09 Fair CLR 10.7 0.4 49% 76.58 0.0
03 09:35 NW 7 16.09 Fair CLR 10 1.8 57% 9 76.56 0.0
03 09:15 N 9 16.09 Fair CLR 8.7 2 63% 7 76.56 0.0
03 08:55 N 7 16.09 Fair CLR 7.8 2.3 68% 7 76.56 0.0
03 08:35 Calm 16.09 Fair CLR 6.4 3.1 80% 76.56 0.0
03 08:15 Calm 16.09 Fair CLR 5.2 2.5 83% 76.56 0.0
03 07:55 Calm 16.09 Fair CLR 3.5 2.6 3.5 1 94% 76.53 0.0
03 07:35 Calm 16.09 Fair CLR 2 1.6 97% 76.53 0.0
03 07:15 Calm 16.09 Fair CLR 1.7 1.2 97% 76.5 0.0
03 06:35 Calm 16.09 Fair CLR 1.1 0.8 98% 76.45 0.0
03 06:15 Calm 16.09 Fair CLR 1 0.3 95% 76.43 0.0
03 05:35 Calm 16.09 Fair CLR 1.8 1.4 97% 76.38 0.0
03 05:15 Calm 16.09 Fair CLR 1.9 1.5 97% 76.38 0.0
03 04:55 Calm 16.09 Fair CLR 1.7 1.3 97% 76.38 0.0
03 04:35 Calm 16.09 Fair CLR 2.2 1.8 97% 76.38 0.0
03 04:15 Calm 16.09 Fair CLR 2.3 2 98% 76.35 0.0
03 03:55 Calm 16.09 Fair CLR 2 1.7 98% 76.35 0.0
03 03:35 Calm 16.09 Fair CLR 2.3 2 98% 76.33 0.0
03 03:15 Calm 16.09 Fair CLR 2.5 2.2 98% 76.3 0.0
03 02:55 Calm 16.09 Fair CLR 2.6 2.3 98% 76.3 0.0
03 02:35 Calm 16.09 Fair CLR 2.5 2.1 97% 76.28 0.0
03 02:15 Calm 16.09 Fair CLR 2.7 2.3 97% 76.28 0.0
03 01:55 Calm 16.09 Fair CLR 3.1 2.7 10.1 3 97% 76.28 0.0
03 01:35 Calm 16.09 Fair CLR 3.4 2.9 97% 76.28 0.0
03 01:15 Calm 16.09 Fair CLR 3.7 3.2 97% 76.28 0.0
03 00:55 Calm 16.09 Fair CLR 3.6 2.8 95% 76.25 0.0
03 00:35 Calm 16.09 Fair CLR 4 3.5 97% 76.25 0.0
03 00:15 Calm 16.09 Fair CLR 4.5 4 97% 76.25 0.0
02 23:55 Calm 16.09 Fair CLR 4.7 4 95% 76.23 0.0
02 23:35 Calm 16.09 Fair CLR 4.8 4.2 96% 76.23 0.0
02 23:15 Calm 16.09 Fair CLR 5.1 4.2 94% 76.23 0.0
02 22:55 Calm 16.09 Fair CLR 5.3 4.5 95% 76.2 0.0
02 22:35 Calm 16.09 Fair CLR 5.9 4.8 93% 76.2 0.0
02 22:15 Calm 16.09 Fair CLR 6.1 5.1 93% 76.17 0.0
02 21:55 Calm 16.09 Fair CLR 6.4 5.3 93% 76.15 0.0
02 21:35 Calm 16.09 Fair CLR 6.8 5.5 92% 76.12 0.0
02 21:15 Calm 16.09 Fair CLR 7.7 5.9 89% 76.1 0.0
02 20:55 Calm 16.09 Partly Cloudy SCT080 7.6 5.6 87% 76.1 0.0
02 20:35 Calm 16.09 Partly Cloudy SCT080 8.5 5.6 82% 76.07 0.0
02 20:15 Calm 16.09 Fair CLR 9.4 5.5 77% 76.05 0.0
02 19:55 Calm 16.09 Fair CLR 10.3 5.4 13 10.3 72% 76.02 0.0
02 19:35 Calm 16.09 Fair CLR 12 4.3 60% 76.02 0.0
02 19:15 Calm 16.09 Fair CLR 12.5 2.9 52% 76 0.0
02 18:55 S 6 16.09 Fair CLR 12.8 2.7 51% 75.97 0.0
02 18:35 Calm 16.09 Fair CLR 12.5 1.8 48% 75.97 0.0
02 18:15 Calm 16.09 Fair CLR 12.5 1.9 49% 75.97 0.0
02 17:55 Calm 16.09 Partly Cloudy SCT075 12.5 1.6 48% 75.95 0.0
02 17:35 Calm 16.09 Overcast OVC075 12.8 2.2 49% 75.95 0.0
02 17:15 Calm 16.09 Mostly Cloudy BKN075 BKN110 13 1.4 45% 75.95 0.0
02 16:55 N 6 16.09 Mostly Cloudy SCT085 BKN110 12.5 1.2 46% 75.95 0.0
02 16:35 N 6 16.09 Overcast SCT060 SCT075 OVC085 12.5 0.7 45% 75.95 0.0
02 16:15 N 11 16.09 Overcast BKN060 BKN075 OVC110 12.5 0.4 44% 75.97 0.0
02 15:55 N 11 16.09 Light Rain SCT031 BKN080 OVC120 12.5 1.7 48% 76 0.0
02 15:35 N 13 16.09 Overcast BKN060 BKN075 OVC120 12.5 1 46% 76 0.0
02 15:15 N 11 16.09 Overcast SCT060 OVC120 12.5 0.4 44% 76.02 0.0
02 14:55 N 9 16.09 Overcast SCT060 SCT080 OVC110 12.4 0.1 43% 76.02 0.0
02 14:35 N 17 16.09 Overcast BKN060 OVC080 12.5 0 43% 76 0.0
02 14:15 N 15 16.09 Overcast OVC060 12.5 0 43% 76.02 0.0
02 13:55 N 15 16.09 Overcast OVC060 12.4 -0.1 13 10.6 42% 76.05 0.0
02 13:35 N 13 16.09 Overcast OVC050 12.6 -0.2 42% 76.05 0.0
02 13:15 N 13 16.09 Overcast BKN050 BKN070 OVC110 12.8 0.1 42% 76.07 0.0
02 12:55 N 15 16.09 Overcast OVC110 12.5 1.2 46% 76.05 0.0
02 12:35 N 20 G 28 16.09 Mostly Cloudy BKN120 12.3 0.5 45% 76.1 0.0
02 12:15 N 13 G 26 16.09 Mostly Cloudy SCT050 SCT095 BKN110 12.7 1.1 45% 76.1 0.0
02 11:55 N 15 16.09 Overcast OVC050 12.5 3.7 55% 76.12 0.0
02 11:35 N 15 16.09 Overcast SCT030 OVC050 12.2 2.4 51% 76.17 0.0
02 11:15 N 17 16.09 Overcast SCT050 BKN060 OVC070 11.7 3.7 58% 76.15 0.0
02 10:55 N 7 16.09 Light Drizzle BKN060 OVC070 11.1 5.4 68% 76.1 0.0
02 10:35 NE 7 16.09 Light Rain OVC050 11 6.3 73% 76.12 0.0
02 10:15 Calm 16.09 Light Drizzle OVC050 10.6 6.3 75% 76.12 0.0
02 09:55 NE 7 16.09 Light Rain OVC048 10.9 6 72% 76.12 0.0
02 09:35 NE 9 16.09 Light Drizzle OVC048 10.9 5.9 72% 76.1 0.0
02 09:15 N 9 16.09 Overcast OVC046 10.7 6.4 75% 76.07 0.0
02 08:55 N 9 16.09 Overcast BKN046 OVC065 11 6.8 76% 76.1 0.0
02 08:35 NE 9 16.09 Overcast OVC046 10.8 7.6 81% 76.05 0.0
02 08:10 N 11 16.09 Overcast OVC041 10.8 8.6 86% 76.05 0.0
02 07:55 N 11 16.09 Overcast OVC039 11 8.9 11 9.5 87% 76.05 0.0
02 07:35 N 7 16.09 Overcast OVC035 10.7 9 89% 76.02 0.0
02 07:15 N 7 16.09 Light Rain OVC035 10.5 9.1 91% 76.02 0.0
02 06:55 Calm 16.09 Overcast BKN035 BKN095 OVC120 10.2 9.7 97% 76 0.0
02 06:35 Calm 16.09 Light Drizzle SCT035 BKN085 OVC120 10 10 100% 76 0.0
02 06:15 Calm 16.09 Rain SCT031 BKN070 OVC085 10 9.7 98% 76.02 0.0
02 05:55 Calm 16.09 Light Drizzle BKN032 BKN050 OVC090 10 9.9 99% 76.05 0.0
02 05:35 Calm 16.09 Drizzle OVC033 10.3 9.9 97% 76.05 0.0
02 05:15 Calm 16.09 Drizzle OVC031 10.5 9.5 94% 76.07 0.0
02 04:55 Calm 16.09 Overcast OVC031 10.5 9.2 92% 76.05 0.0
02 04:35 Calm 16.09 Overcast OVC031 10.2 9.1 93% 76.05 0.0
02 04:15 Calm 16.09 Overcast OVC033 9.7 9 95% 76.02 0.0
02 03:55 Calm 16.09 Partly Cloudy SCT033 9.5 8.9 96% 76 0.0
02 03:15 Calm 16.09 Fair CLR 9.5 8.9 96% 75.97 0.0
02 02:55 Calm 16.09 Fair CLR 9.8 9 95% 75.95 0.0
02 02:35 Calm 16.09 Fair CLR 10 9 94% 75.95 0.0
02 02:15 Calm 16.09 Fair CLR 9.8 9 95% 75.97 0.0
02 01:55 Calm 16.09 Fair CLR 10 9 12 9.6 94% 76 0.0
02 01:35 Calm 16.09 Fair CLR 10 8.9 93% 76 0.0
02 01:15 Calm 16.09 Fair CLR 9.7 8.8 94% 76.02 0.0
02 00:55 Calm 16.09 Fair CLR 9.6 8.6 94% 76.02 0.0
02 00:35 Calm 16.09 Fair CLR 9.9 8.7 92% 76.02 0.0
02 00:15 Calm 16.09 Fair CLR 10 8.6 91% 76.05 0.0
01 23:55 Calm 16.09 Fair CLR 10 8.6 91% 76.05 0.0
01 23:35 Calm 16.09 Fair CLR 10.2 8.5 89% 76.05 0.0
01 23:15 Calm 16.09 Fair CLR 10.4 8.5 88% 76.07 0.0
01 22:55 SE 6 16.09 Fair CLR 10.1 8.5 90% 76.07 0.0
01 22:35 Calm 16.09 Fair CLR 10.1 8.3 89% 76.1 0.0
01 22:15 Calm 16.09 Fair CLR 10.1 8.2 88% 76.07 0.0
01 21:55 Calm 16.09 Fair CLR 10.4 8.2 86% 76.07 0.0
01 21:35 Calm 16.09 Fair CLR 10.6 8.1 85% 76.07 0.0
01 21:15 Calm 16.09 Fair CLR 11.5 8 79% 76.1 0.0
01 20:55 Calm 16.09 Fair CLR 11.5 8 79% 76.05 0.0
01 20:35 Calm 16.09 Fair CLR 11.4 7.7 78% 76.02 0.0
01 20:15 Calm 16.09 Fair CLR 12 7.5 74% 76 0.0
01 19:55 SE 6 16.09 Fair CLR 12.1 7.5 16.1 12.1 74% 75.97 0.0
01 19:35 SE 6 16.09 Fair CLR 12.7 7.9 73% 76 0.0
01 19:15 S 9 16.09 Fair CLR 13.2 8.2 72% 76 0.0
01 18:55 S 13 16.09 Fair CLR 13.6 8.3 71% 76 0.0
01 18:35 S 13 16.09 Fair CLR 13.8 8.2 69% 76 0.0
01 18:15 S 11 16.09 Fair CLR 14.1 7.9 67% 76 0.0
01 17:55 S 7 16.09 Fair CLR 14.6 7.5 63% 76 0.0
01 17:35 SE 13 16.09 Fair CLR 15.1 7.1 59% 76.02 0.0
01 17:15 S 13 16.09 Fair CLR 15.5 6.7 56% 76.02 0.0
01 16:55 SE 11 16.09 Fair CLR 15.2 5.9 54% 76.02 0.0
01 16:35 S 9 16.09 Fair CLR 15.1 5.5 53% 76.02 0.0
01 16:15 S 11 16.09 Partly Cloudy SCT050 15.5 5.7 52% 76.07 0.0
01 15:55 S 13 16.09 Overcast BKN050 OVC060 15.5 5.5 52% 76.07 0.0
01 15:35 SE 9 16.09 Overcast OVC046 15.5 5.2 51% 76.1 0.0
01 15:15 SE 11 16.09 Overcast OVC048 15.5 5.5 52% 76.15 0.0
01 14:55 SE 9 16.09 Overcast OVC050 15.6 5.3 51% 76.15 0.0
01 14:35 SE 6 16.09 Overcast OVC050 15.8 5.2 50% 76.15 0.0
01 14:15 Calm 16.09 Overcast BKN050 OVC060 15.4 3.7 46% 76.15 0.0
01 13:55 S 7 16.09 Overcast BKN055 OVC070 15.5 4 15.5 10 46% 76.17 0.0
01 13:35 SE 6 16.09 Mostly Cloudy SCT055 BKN070 15.1 3.1 45% 76.17 0.0
01 13:15 SE 6 16.09 Mostly Cloudy BKN055 BKN065 15.3 2.9 44% 76.2 0.0
01 12:55 NE 6 16.09 Overcast BKN055 OVC065 14.6 3.3 47% 76.23 0.0
01 12:35 SE 9 16.09 Overcast OVC055 14.1 3.6 49% 76.23 0.0
01 12:15 Calm 16.09 Mostly Cloudy BKN060 13.7 3.5 50% 76.25 0.0
01 11:55 Calm 16.09 Overcast BKN060 OVC070 13.3 3.4 51% 76.25 0.0
01 11:35 NE 6 16.09 Overcast OVC060 12.7 2.8 51% 76.3 0.0
01 11:15 E 6 16.09 Overcast BKN060 OVC075 12.5 2.7 52% 76.3 0.0
01 10:55 E 9 16.09 Mostly Cloudy BKN060 BKN075 12.5 2.5 51% 76.28 0.0
01 10:35 E 11 16.09 Overcast OVC060 11.6 2.6 54% 76.28 0.0
01 10:15 E 7 16.09 Overcast OVC060 11 3 58% 76.28 0.0
Date Time (edt) Wind (kph) Vis. (km) Weather Sky Cond. Air Dwpt Max. Min. Relative Humidity Wind Chill (°C) Heat Index (°C) altimeter (cm) sea level (mb) 1 hr 3 hr 6 hr
6 hour
Temperature (ºC) Pressure Precipitation (cm)